Ever Leading — 2FRK8 — position and weather

sailwx.info

Track history (hours):
 
Tides and Currents Weather Stations Pressure Air Temp Water Temp Dewpoint Dewpoint Depression Visibility Wind Speed Wind Dir Waves Ship Positions

Ever Leading

Last reported at 2017-Dec-15 16:00 UTC. Time now 2017-Dec-15 16:06 UTC.
Position N 31°55' W 080°40'.

Length 335 m; draft 10.7 m.

Type: Ship (hazmat cat D). MMSI: 235093619.

Date/timePositionNaut miles runAvg speedWind from/ knotsBaromVisibWave heightAir tempDewpointWater temp
2017-Dec-15 16:00N 31°55' W 080°40'0 0.0
2017-Dec-15 15:30N 31°55' W 080°40'0 0.0
2017-Dec-15 15:00N 31°55' W 080°40'0 0.0
2017-Dec-15 14:30N 31°55' W 080°40'0 0.0
2017-Dec-15 13:42N 31°55' W 080°40'0 0.0
2017-Dec-15 13:30N 31°55' W 080°40'0 0.0
2017-Dec-15 12:54N 31°55' W 080°40'0 0.0
2017-Dec-15 12:30N 31°55' W 080°40'0 0.0
2017-Dec-15 11:54N 31°55' W 080°40'0 0.0
2017-Dec-15 11:30N 31°55' W 080°40'0 0.0
2017-Dec-15 10:54N 31°55' W 080°40'0 0.1
2017-Dec-15 10:30N 31°55' W 080°40'0 0.1
2017-Dec-15 10:00N 31°55' W 080°40'0 0.1
2017-Dec-15 09:18N 31°55' W 080°40'0 0.0
2017-Dec-15 08:54N 31°55' W 080°40'0 0.0
2017-Dec-15 08:30N 31°55' W 080°40'0 0.0
2017-Dec-15 08:00N 31°55' W 080°40'0 0.0
2017-Dec-15 07:24N 31°55' W 080°40'0 0.1
2017-Dec-15 06:54N 31°55' W 080°40'0 1.1
2017-Dec-15 06:30N 31°55' W 080°40'3 6.7
2017-Dec-15 06:00N 31°56' W 080°36'5 9.1
2017-Dec-15 05:30N 31°53' W 080°31'611.3
2017-Dec-15 05:00N 31°50' W 080°26'815.3
2017-Dec-15 04:30N 31°46' W 080°18'814.7
2017-Dec-15 04:00N 31°42' W 080°10'  
2017-Dec-11 16:23N 09°39' W 079°46'821.7
2017-Dec-11 16:01N 09°31' W 079°50'917.0
2017-Dec-11 15:31N 09°24' W 079°54'2 3.0
2017-Dec-11 14:58N 09°22' W 079°53'0 0.1
2017-Dec-11 14:28N 09°22' W 079°53'0 0.0
2017-Dec-11 13:58N 09°22' W 079°53'0 0.0
2017-Dec-11 13:28N 09°22' W 079°53'0 0.0
2017-Dec-11 12:58N 09°22' W 079°53'0 0.0
2017-Dec-11 12:28N 09°22' W 079°53'0 0.0
2017-Dec-11 11:58N 09°22' W 079°53'0 0.0
2017-Dec-11 11:28N 09°22' W 079°53'0 0.0
2017-Dec-11 10:58N 09°22' W 079°53'0 0.0
2017-Dec-11 10:28N 09°22' W 079°53'0 0.0
2017-Dec-11 09:58N 09°22' W 079°53'0 0.0
2017-Dec-11 09:28N 09°22' W 079°53'0 0.0
2017-Dec-11 08:58N 09°22' W 079°53'0 0.0
2017-Dec-11 08:28N 09°22' W 079°53'0 0.0
2017-Dec-11 07:58N 09°22' W 079°53'0 0.0
2017-Dec-11 07:28N 09°22' W 079°53'0 0.0
2017-Dec-11 06:58N 09°22' W 079°53'0 0.0
2017-Dec-11 06:28N 09°22' W 079°53'0 0.0
2017-Dec-11 05:58N 09°22' W 079°53'0 0.0
2017-Dec-11 05:28N 09°22' W 079°53'0 0.0
2017-Dec-11 04:58N 09°22' W 079°53'0 0.0
2017-Dec-11 04:28N 09°22' W 079°53'0 0.0
2017-Dec-11 03:58N 09°22' W 079°53'0 0.0
2017-Dec-11 03:28N 09°22' W 079°53'0 0.0
2017-Dec-11 02:58N 09°22' W 079°53'0 0.0
2017-Dec-11 02:28N 09°22' W 079°53'0 0.0
2017-Dec-11 01:58N 09°22' W 079°53'0 0.0
2017-Dec-11 01:28N 09°22' W 079°53'0 0.0
2017-Dec-11 00:58N 09°22' W 079°53'0 0.0
2017-Dec-11 00:28N 09°22' W 079°53'0 0.0
2017-Dec-10 23:58N 09°22' W 079°53'0 0.0
2017-Dec-10 23:28N 09°22' W 079°53'0 0.0
2017-Dec-10 22:58N 09°22' W 079°53'0 0.0
2017-Dec-10 22:28N 09°22' W 079°53'0 0.0
2017-Dec-10 21:58N 09°22' W 079°53'0 0.0
2017-Dec-10 21:28N 09°22' W 079°53'0 0.0
2017-Dec-10 20:58N 09°22' W 079°53'0 0.0
2017-Dec-10 20:29N 09°22' W 079°53'0 0.0
2017-Dec-10 20:00N 09°22' W 079°53'0 0.1
2017-Dec-10 19:30N 09°22' W 079°53'1 1.3
2017-Dec-10 19:00N 09°23' W 079°54'2 3.1
2017-Dec-10 18:30N 09°24' W 079°55'3 6.4
2017-Dec-10 18:00N 09°20' W 079°55'4 7.4
2017-Dec-10 17:30N 09°17' W 079°55'0 0.5
2017-Dec-10 17:00N 09°16' W 079°55'0 0.5
2017-Dec-10 16:30N 09°16' W 079°55'0 0.5
2017-Dec-10 16:00N 09°16' W 079°55'0 0.1
2017-Dec-10 15:30N 09°16' W 079°55'0 0.9
2017-Dec-10 15:00N 09°15' W 079°55'0 0.4
2017-Dec-10 14:30N 09°15' W 079°55'2 4.1
2017-Dec-10 14:00N 09°14' W 079°55'710.3
2017-Dec-10 13:17N 09°10' W 079°49'  
2017-Dec-07 18:00N 12°36' W 093°18'36718.3 320 / 101010.010.8 32.0 30.0
2017-Dec-06 22:00N 15°24' W 098°54'8140.5 320 / 101011.010.8 31.0 30.0
2017-Dec-06 20:00N 16°06' W 100°06'47018.8 250 / 51014.0 5.4 30.0 30.0
2017-Dec-05 19:00N 19°54' W 107°18'   030 / 71014.0 5.4 29.0 28.0
Track history (hours):
 
Tides and Currents Weather Stations Pressure Air Temp Water Temp Dewpoint Dewpoint Depression Visibility Wind Speed Wind Dir Waves Ship Positions

Ever Leading

Last reported at 2017-Dec-15 16:00 UTC. Time now 2017-Dec-15 16:06 UTC.
Position N 31°55' W 080°40'.

Length 335 m; draft 10.7 m.

Type: Ship (hazmat cat D). MMSI: 235093619.

Date/timePositionNaut miles runAvg speedWind from/ knotsBaromVisibWave heightAir tempDewpointWater temp
2017-Dec-15 16:00N 31°55' W 080°40'0 0.0
2017-Dec-15 15:30N 31°55' W 080°40'0 0.0
2017-Dec-15 15:00N 31°55' W 080°40'0 0.0
2017-Dec-15 14:30N 31°55' W 080°40'0 0.0
2017-Dec-15 13:42N 31°55' W 080°40'0 0.0
2017-Dec-15 13:30N 31°55' W 080°40'0 0.0
2017-Dec-15 12:54N 31°55' W 080°40'0 0.0
2017-Dec-15 12:30N 31°55' W 080°40'0 0.0
2017-Dec-15 11:54N 31°55' W 080°40'0 0.0
2017-Dec-15 11:30N 31°55' W 080°40'0 0.0
2017-Dec-15 10:54N 31°55' W 080°40'0 0.1
2017-Dec-15 10:30N 31°55' W 080°40'0 0.1
2017-Dec-15 10:00N 31°55' W 080°40'0 0.1
2017-Dec-15 09:18N 31°55' W 080°40'0 0.0
2017-Dec-15 08:54N 31°55' W 080°40'0 0.0
2017-Dec-15 08:30N 31°55' W 080°40'0 0.0
2017-Dec-15 08:00N 31°55' W 080°40'0 0.0
2017-Dec-15 07:24N 31°55' W 080°40'0 0.1
2017-Dec-15 06:54N 31°55' W 080°40'0 1.1
2017-Dec-15 06:30N 31°55' W 080°40'3 6.7
2017-Dec-15 06:00N 31°56' W 080°36'5 9.1
2017-Dec-15 05:30N 31°53' W 080°31'611.3
2017-Dec-15 05:00N 31°50' W 080°26'815.3
2017-Dec-15 04:30N 31°46' W 080°18'814.7
2017-Dec-15 04:00N 31°42' W 080°10'  
2017-Dec-11 16:23N 09°39' W 079°46'821.7
2017-Dec-11 16:01N 09°31' W 079°50'917.0
2017-Dec-11 15:31N 09°24' W 079°54'2 3.0
2017-Dec-11 14:58N 09°22' W 079°53'0 0.1
2017-Dec-11 14:28N 09°22' W 079°53'0 0.0
2017-Dec-11 13:58N 09°22' W 079°53'0 0.0
2017-Dec-11 13:28N 09°22' W 079°53'0 0.0
2017-Dec-11 12:58N 09°22' W 079°53'0 0.0
2017-Dec-11 12:28N 09°22' W 079°53'0 0.0
2017-Dec-11 11:58N 09°22' W 079°53'0 0.0
2017-Dec-11 11:28N 09°22' W 079°53'0 0.0
2017-Dec-11 10:58N 09°22' W 079°53'0 0.0
2017-Dec-11 10:28N 09°22' W 079°53'0 0.0
2017-Dec-11 09:58N 09°22' W 079°53'0 0.0
2017-Dec-11 09:28N 09°22' W 079°53'0 0.0
2017-Dec-11 08:58N 09°22' W 079°53'0 0.0
2017-Dec-11 08:28N 09°22' W 079°53'0 0.0
2017-Dec-11 07:58N 09°22' W 079°53'0 0.0
2017-Dec-11 07:28N 09°22' W 079°53'0 0.0
2017-Dec-11 06:58N 09°22' W 079°53'0 0.0
2017-Dec-11 06:28N 09°22' W 079°53'0 0.0
2017-Dec-11 05:58N 09°22' W 079°53'0 0.0
2017-Dec-11 05:28N 09°22' W 079°53'0 0.0
2017-Dec-11 04:58N 09°22' W 079°53'0 0.0
2017-Dec-11 04:28N 09°22' W 079°53'0 0.0
2017-Dec-11 03:58N 09°22' W 079°53'0 0.0
2017-Dec-11 03:28N 09°22' W 079°53'0 0.0
2017-Dec-11 02:58N 09°22' W 079°53'0 0.0
2017-Dec-11 02:28N 09°22' W 079°53'0 0.0
2017-Dec-11 01:58N 09°22' W 079°53'0 0.0
2017-Dec-11 01:28N 09°22' W 079°53'0 0.0
2017-Dec-11 00:58N 09°22' W 079°53'0 0.0
2017-Dec-11 00:28N 09°22' W 079°53'0 0.0
2017-Dec-10 23:58N 09°22' W 079°53'0 0.0
2017-Dec-10 23:28N 09°22' W 079°53'0 0.0
2017-Dec-10 22:58N 09°22' W 079°53'0 0.0
2017-Dec-10 22:28N 09°22' W 079°53'0 0.0
2017-Dec-10 21:58N 09°22' W 079°53'0 0.0
2017-Dec-10 21:28N 09°22' W 079°53'0 0.0
2017-Dec-10 20:58N 09°22' W 079°53'0 0.0
2017-Dec-10 20:29N 09°22' W 079°53'0 0.0
2017-Dec-10 20:00N 09°22' W 079°53'0 0.1
2017-Dec-10 19:30N 09°22' W 079°53'1 1.3
2017-Dec-10 19:00N 09°23' W 079°54'2 3.1
2017-Dec-10 18:30N 09°24' W 079°55'3 6.4
2017-Dec-10 18:00N 09°20' W 079°55'4 7.4
2017-Dec-10 17:30N 09°17' W 079°55'0 0.5
2017-Dec-10 17:00N 09°16' W 079°55'0 0.5
2017-Dec-10 16:30N 09°16' W 079°55'0 0.5
2017-Dec-10 16:00N 09°16' W 079°55'0 0.1
2017-Dec-10 15:30N 09°16' W 079°55'0 0.9
2017-Dec-10 15:00N 09°15' W 079°55'0 0.4
2017-Dec-10 14:30N 09°15' W 079°55'2 4.1
2017-Dec-10 14:00N 09°14' W 079°55'710.3
2017-Dec-10 13:17N 09°10' W 079°49'  
2017-Dec-07 18:00N 12°36' W 093°18'36718.3 320 / 101010.010.8 32.0 30.0
2017-Dec-06 22:00N 15°24' W 098°54'8140.5 320 / 101011.010.8 31.0 30.0
2017-Dec-06 20:00N 16°06' W 100°06'47018.8 250 / 51014.0 5.4 30.0 30.0
2017-Dec-05 19:00N 19°54' W 107°18'   030 / 71014.0 5.4 29.0 28.0

Dump ship's entire track history